Zhe Pu Tuo 2012 — BKRA5 — position and weather

sailwx.info

Track history (hours):
 
Tides and Currents Weather Stations Pressure Air Temp Water Temp Dewpoint Dewpoint Depression Visibility Wind Speed Wind Dir Waves Ship Positions

Zhe Pu Tuo 2012

Last reported at 2016-May-21 12:19 UTC. Time now 2016-May-25 18:52 UTC.
Position N 38°26' E 118°25'.

Length 57 m; draft 3.7 m.

Type: Tug. MMSI: 412763040.

Date/timePositionNaut miles runAvg speedWind from/ knotsBaromVisibWave heightAir tempDewpointWater temp
2016-May-21 12:19N 38°26' E 118°25'30 1.2
2016-May-20 10:33N 38°37' E 117°50'20 3.4
2016-May-20 04:33N 38°57' E 117°53'7 6.9
2016-May-20 03:33N 38°59' E 117°44'1 0.5
2016-May-20 02:30N 38°59' E 117°43'0 0.0
2016-May-20 01:24N 38°59' E 117°43'0 0.0
2016-May-20 00:30N 38°59' E 117°43'0 0.0
2016-May-19 23:30N 38°59' E 117°43'0 0.0
2016-May-19 22:18N 38°59' E 117°43'0 0.0
2016-May-19 21:30N 38°59' E 117°43'0 0.0
2016-May-19 20:12N 38°59' E 117°43'0 0.0
2016-May-19 19:30N 38°59' E 117°43'0 0.0
2016-May-19 18:30N 38°59' E 117°43'0 0.0
2016-May-19 17:30N 38°59' E 117°43'0 0.0
2016-May-19 16:30N 38°59' E 117°43'0 0.0
2016-May-19 15:24N 38°59' E 117°43'0 0.0
2016-May-19 14:18N 38°59' E 117°43'0 0.0
2016-May-19 13:30N 38°59' E 117°43'0 0.0
2016-May-19 12:30N 38°59' E 117°43'0 0.0
2016-May-19 11:24N 38°59' E 117°43'0 0.0
2016-May-19 10:30N 38°59' E 117°43'0 0.0
2016-May-19 09:30N 38°59' E 117°43'0 0.0
2016-May-19 08:30N 38°59' E 117°43'0 0.0
2016-May-19 07:30N 38°59' E 117°43'0 0.0
2016-May-19 06:24N 38°59' E 117°43'0 0.0
2016-May-19 05:33N 38°59' E 117°43'1 0.5
2016-May-19 04:33N 38°59' E 117°44'0 0.0
2016-May-19 03:33N 38°59' E 117°44'0 0.3
2016-May-19 02:33N 38°59' E 117°44'1 0.6
2016-May-19 01:33N 38°59' E 117°43'0 0.0
2016-May-19 00:33N 38°59' E 117°43'0 0.0
2016-May-18 23:27N 38°59' E 117°43'0 0.0
2016-May-18 22:33N 38°59' E 117°43'0 0.0
2016-May-18 21:33N 38°59' E 117°43'0 0.0
2016-May-18 20:27N 38°59' E 117°43'0 0.0
2016-May-18 18:09N 38°59' E 117°43'0 0.0
2016-May-18 17:33N 38°59' E 117°43'0 0.0
2016-May-18 16:33N 38°59' E 117°43'0 0.0
2016-May-18 15:33N 38°59' E 117°43'0 0.0
2016-May-18 14:33N 38°59' E 117°43'0 0.0
2016-May-18 13:27N 38°59' E 117°43'0 0.0
2016-May-18 12:33N 38°59' E 117°43'0 0.0
2016-May-18 11:32N 38°59' E 117°43'4 4.0
2016-May-18 10:33N 38°58' E 117°48'7 6.5
2016-May-18 09:33N 38°55' E 117°55'  
2016-May-12 04:33N 38°58' E 117°47'3 2.9
2016-May-12 03:33N 38°59' E 117°43'0 0.0
2016-May-12 02:32N 38°59' E 117°43'0 0.0
2016-May-12 01:33N 38°59' E 117°43'0 0.0
2016-May-12 00:33N 38°59' E 117°43'0 0.0
2016-May-11 23:33N 38°59' E 117°43'0 0.0
2016-May-11 22:33N 38°59' E 117°43'0 0.0
2016-May-11 21:33N 38°59' E 117°43'0 0.0
2016-May-11 20:33N 38°59' E 117°43'0 0.0
2016-May-11 19:33N 38°59' E 117°43'0 0.0
2016-May-11 18:33N 38°59' E 117°43'0 0.0
2016-May-11 17:33N 38°59' E 117°43'0 0.0
2016-May-11 16:33N 38°59' E 117°43'0 0.0
2016-May-11 15:33N 38°59' E 117°43'0 0.0
2016-May-11 14:33N 38°59' E 117°43'0 0.0
2016-May-11 13:33N 38°59' E 117°43'0 0.0
2016-May-11 12:32N 38°59' E 117°43'  
Track history (hours):
 
Tides and Currents Weather Stations Pressure Air Temp Water Temp Dewpoint Dewpoint Depression Visibility Wind Speed Wind Dir Waves Ship Positions

Zhe Pu Tuo 2012

Last reported at 2016-May-21 12:19 UTC. Time now 2016-May-25 18:52 UTC.
Position N 38°26' E 118°25'.

Length 57 m; draft 3.7 m.

Type: Tug. MMSI: 412763040.

Date/timePositionNaut miles runAvg speedWind from/ knotsBaromVisibWave heightAir tempDewpointWater temp
2016-May-21 12:19N 38°26' E 118°25'30 1.2
2016-May-20 10:33N 38°37' E 117°50'20 3.4
2016-May-20 04:33N 38°57' E 117°53'7 6.9
2016-May-20 03:33N 38°59' E 117°44'1 0.5
2016-May-20 02:30N 38°59' E 117°43'0 0.0
2016-May-20 01:24N 38°59' E 117°43'0 0.0
2016-May-20 00:30N 38°59' E 117°43'0 0.0
2016-May-19 23:30N 38°59' E 117°43'0 0.0
2016-May-19 22:18N 38°59' E 117°43'0 0.0
2016-May-19 21:30N 38°59' E 117°43'0 0.0
2016-May-19 20:12N 38°59' E 117°43'0 0.0
2016-May-19 19:30N 38°59' E 117°43'0 0.0
2016-May-19 18:30N 38°59' E 117°43'0 0.0
2016-May-19 17:30N 38°59' E 117°43'0 0.0
2016-May-19 16:30N 38°59' E 117°43'0 0.0
2016-May-19 15:24N 38°59' E 117°43'0 0.0
2016-May-19 14:18N 38°59' E 117°43'0 0.0
2016-May-19 13:30N 38°59' E 117°43'0 0.0
2016-May-19 12:30N 38°59' E 117°43'0 0.0
2016-May-19 11:24N 38°59' E 117°43'0 0.0
2016-May-19 10:30N 38°59' E 117°43'0 0.0
2016-May-19 09:30N 38°59' E 117°43'0 0.0
2016-May-19 08:30N 38°59' E 117°43'0 0.0
2016-May-19 07:30N 38°59' E 117°43'0 0.0
2016-May-19 06:24N 38°59' E 117°43'0 0.0
2016-May-19 05:33N 38°59' E 117°43'1 0.5
2016-May-19 04:33N 38°59' E 117°44'0 0.0
2016-May-19 03:33N 38°59' E 117°44'0 0.3
2016-May-19 02:33N 38°59' E 117°44'1 0.6
2016-May-19 01:33N 38°59' E 117°43'0 0.0
2016-May-19 00:33N 38°59' E 117°43'0 0.0
2016-May-18 23:27N 38°59' E 117°43'0 0.0
2016-May-18 22:33N 38°59' E 117°43'0 0.0
2016-May-18 21:33N 38°59' E 117°43'0 0.0
2016-May-18 20:27N 38°59' E 117°43'0 0.0
2016-May-18 18:09N 38°59' E 117°43'0 0.0
2016-May-18 17:33N 38°59' E 117°43'0 0.0
2016-May-18 16:33N 38°59' E 117°43'0 0.0
2016-May-18 15:33N 38°59' E 117°43'0 0.0
2016-May-18 14:33N 38°59' E 117°43'0 0.0
2016-May-18 13:27N 38°59' E 117°43'0 0.0
2016-May-18 12:33N 38°59' E 117°43'0 0.0
2016-May-18 11:32N 38°59' E 117°43'4 4.0
2016-May-18 10:33N 38°58' E 117°48'7 6.5
2016-May-18 09:33N 38°55' E 117°55'  
2016-May-12 04:33N 38°58' E 117°47'3 2.9
2016-May-12 03:33N 38°59' E 117°43'0 0.0
2016-May-12 02:32N 38°59' E 117°43'0 0.0
2016-May-12 01:33N 38°59' E 117°43'0 0.0
2016-May-12 00:33N 38°59' E 117°43'0 0.0
2016-May-11 23:33N 38°59' E 117°43'0 0.0
2016-May-11 22:33N 38°59' E 117°43'0 0.0
2016-May-11 21:33N 38°59' E 117°43'0 0.0
2016-May-11 20:33N 38°59' E 117°43'0 0.0
2016-May-11 19:33N 38°59' E 117°43'0 0.0
2016-May-11 18:33N 38°59' E 117°43'0 0.0
2016-May-11 17:33N 38°59' E 117°43'0 0.0
2016-May-11 16:33N 38°59' E 117°43'0 0.0
2016-May-11 15:33N 38°59' E 117°43'0 0.0
2016-May-11 14:33N 38°59' E 117°43'0 0.0
2016-May-11 13:33N 38°59' E 117°43'0 0.0
2016-May-11 12:32N 38°59' E 117°43'  

Dump ship's entire track history